Time,TemperatureF,DewpointF,PressureIn,WindDirection,WindDirectionDegrees,WindSpeedMPH,WindSpeedGustMPH,Humidity,HourlyPrecipIn,Conditions,Clouds,dailyrainin,SoftwareType,DateUTC
2013-06-06 00:09:00,54.7,49.3,29.96,WSW,254,0.0,0.0,82,0.00,,,-99.99,Weather View 32 v60,2013-06-06 07:09:00,
2013-06-06 00:15:00,54.7,49.3,29.96,WSW,254,0.0,0.0,82,0.00,,,-99.99,Weather View 32 v60,2013-06-06 07:15:00,
2013-06-06 00:30:00,54.5,49.8,29.96,NW,309,0.0,5.0,84,0.00,,,-99.99,Weather View 32 v60,2013-06-06 07:30:00,
2013-06-06 00:40:00,54.3,49.9,29.96,NNE,14,0.0,5.0,85,0.00,,,-99.99,Weather View 32 v60,2013-06-06 07:40:00,
2013-06-06 00:50:00,54.3,49.9,29.96,NNW,332,0.0,7.0,85,0.00,,,-99.99,Weather View 32 v60,2013-06-06 07:50:00,
2013-06-06 01:00:00,54.1,50.0,29.96,NW,320,0.0,7.0,86,0.00,,,-99.99,Weather View 32 v60,2013-06-06 08:00:00,
2013-06-06 01:10:00,54.1,50.0,29.96,NW,325,0.0,7.0,86,0.00,,,-99.99,Weather View 32 v60,2013-06-06 08:10:00,
2013-06-06 01:15:00,54.1,50.0,29.96,NW,325,0.0,7.0,86,0.00,,,-99.99,Weather View 32 v60,2013-06-06 08:15:00,
2013-06-06 01:30:00,54.0,49.9,29.96,West,281,0.0,7.0,86,0.00,,,-99.99,Weather View 32 v60,2013-06-06 08:30:00,
2013-06-06 01:40:00,53.8,49.7,29.96,NW,304,0.0,7.0,86,0.00,,,-99.99,Weather View 32 v60,2013-06-06 08:40:00,
2013-06-06 01:50:00,53.8,49.7,29.96,NW,318,0.0,0.0,86,0.00,,,-99.99,Weather View 32 v60,2013-06-06 08:50:00,
2013-06-06 02:00:00,53.6,49.8,29.93,NNW,327,0.0,0.0,87,0.00,,,-99.99,Weather View 32 v60,2013-06-06 09:00:00,
2013-06-06 02:10:00,53.6,49.8,29.93,West,273,0.0,0.0,87,0.00,,,-99.99,Weather View 32 v60,2013-06-06 09:10:00,
2013-06-06 02:16:00,53.6,49.8,29.93,West,273,0.0,0.0,87,0.00,,,-99.99,Weather View 32 v60,2013-06-06 09:16:00,
2013-06-06 02:30:00,53.6,50.1,29.93,NW,323,0.0,0.0,88,0.00,,,-99.99,Weather View 32 v60,2013-06-06 09:30:00,
2013-06-06 02:40:00,53.6,50.4,29.93,WNW,302,0.0,0.0,89,0.00,,,-99.99,Weather View 32 v60,2013-06-06 09:40:00,
2013-06-06 02:50:00,53.6,50.4,29.93,NW,309,0.0,0.0,89,0.00,,,-99.99,Weather View 32 v60,2013-06-06 09:50:00,
2013-06-06 03:00:00,53.6,50.4,29.93,WSW,250,0.0,0.0,89,0.00,,,-99.99,Weather View 32 v60,2013-06-06 10:00:00,
2013-06-06 03:10:00,53.4,50.3,29.93,WNW,282,0.0,0.0,89,0.00,,,-99.99,Weather View 32 v60,2013-06-06 10:10:00,
2013-06-06 03:16:00,53.4,50.3,29.93,WNW,282,0.0,0.0,89,0.00,,,-99.99,Weather View 32 v60,2013-06-06 10:16:00,
2013-06-06 03:29:00,53.4,50.6,29.93,West,266,0.0,0.0,90,0.00,,,-99.99,Weather View 32 v60,2013-06-06 10:29:00,
2013-06-06 03:39:00,53.4,50.9,29.93,WNW,303,0.0,0.0,91,0.00,,,-99.99,Weather View 32 v60,2013-06-06 10:39:00,
2013-06-06 03:49:00,53.4,50.9,29.93,SW,232,0.0,0.0,91,0.00,,,-99.99,Weather View 32 v60,2013-06-06 10:49:00,
2013-06-06 03:59:00,53.2,50.7,29.93,WSW,250,0.0,0.0,91,0.00,,,-99.99,Weather View 32 v60,2013-06-06 10:59:00,
2013-06-06 04:09:00,53.2,51.0,29.93,West,264,0.0,0.0,92,0.00,,,-99.99,Weather View 32 v60,2013-06-06 11:09:00,
2013-06-06 04:17:00,53.2,51.0,29.93,West,264,0.0,0.0,92,0.00,,,-99.99,Weather View 32 v60,2013-06-06 11:17:00,
2013-06-06 04:29:00,53.6,51.3,29.93,SW,229,0.0,0.0,92,0.00,,,-99.99,Weather View 32 v60,2013-06-06 11:29:00,
2013-06-06 04:39:00,53.8,51.8,29.93,WSW,243,0.0,0.0,93,0.00,,,-99.99,Weather View 32 v60,2013-06-06 11:39:00,
2013-06-06 04:49:00,54.0,52.0,29.93,WSW,247,0.0,0.0,93,0.00,,,-99.99,Weather View 32 v60,2013-06-06 11:49:00,
2013-06-06 04:59:00,54.1,52.2,29.93,WSW,237,0.0,0.0,93,0.00,,,-99.99,Weather View 32 v60,2013-06-06 11:59:00,
2013-06-06 05:09:00,54.3,52.3,29.93,West,262,0.0,0.0,93,0.00,,,-99.99,Weather View 32 v60,2013-06-06 12:09:00,
2013-06-06 05:17:00,54.3,52.3,29.93,West,262,0.0,0.0,93,0.00,,,-99.99,Weather View 32 v60,2013-06-06 12:17:00,
2013-06-06 05:29:00,54.7,52.1,29.96,NNW,341,0.0,0.0,91,0.00,,,-99.99,Weather View 32 v60,2013-06-06 12:29:00,
2013-06-06 05:39:00,54.7,52.1,29.96,West,277,0.0,0.0,91,0.00,,,-99.99,Weather View 32 v60,2013-06-06 12:39:00,
2013-06-06 05:49:00,54.7,52.1,29.96,West,267,0.0,0.0,91,0.00,,,-99.99,Weather View 32 v60,2013-06-06 12:49:00,
2013-06-06 05:59:00,54.7,51.8,29.96,WNW,301,0.0,0.0,90,0.00,,,-99.99,Weather View 32 v60,2013-06-06 12:59:00,
2013-06-06 06:09:00,54.9,52.0,29.96,WNW,299,0.0,0.0,90,0.00,,,-99.99,Weather View 32 v60,2013-06-06 13:09:00,
2013-06-06 06:18:00,54.9,52.0,29.96,WNW,299,0.0,0.0,90,0.00,,,-99.99,Weather View 32 v60,2013-06-06 13:18:00,
2013-06-06 06:29:00,54.9,52.0,29.96,WNW,282,0.0,0.0,90,0.00,,,-99.99,Weather View 32 v60,2013-06-06 13:29:00,
2013-06-06 06:39:00,55.0,51.8,29.96,WNW,295,0.0,0.0,89,0.00,,,-99.99,Weather View 32 v60,2013-06-06 13:39:00,
2013-06-06 06:49:00,55.4,51.9,29.96,NNW,343,0.0,0.0,88,0.00,,,-99.99,Weather View 32 v60,2013-06-06 13:49:00,
2013-06-06 06:59:00,55.6,51.8,29.96,West,279,0.0,0.0,87,0.00,,,-99.99,Weather View 32 v60,2013-06-06 13:59:00,
2013-06-06 07:09:00,56.3,52.2,29.96,NNW,340,0.0,0.0,86,0.00,,,-99.99,Weather View 32 v60,2013-06-06 14:09:00,
2013-06-06 07:18:00,56.3,52.2,29.96,NNW,340,0.0,0.0,86,0.00,,,-99.99,Weather View 32 v60,2013-06-06 14:18:00,
2013-06-06 07:29:00,57.0,51.6,29.96,NNW,342,0.0,0.0,82,0.00,,,-99.99,Weather View 32 v60,2013-06-06 14:29:00,
2013-06-06 07:39:00,57.2,51.1,29.96,NNW,346,0.0,0.0,80,0.00,,,-99.99,Weather View 32 v60,2013-06-06 14:39:00,
2013-06-06 07:49:00,57.6,50.7,29.96,WSW,244,0.0,0.0,78,0.00,,,-99.99,Weather View 32 v60,2013-06-06 14:49:00,
2013-06-06 07:59:00,58.3,51.1,29.96,West,278,0.0,0.0,77,0.00,,,-99.99,Weather View 32 v60,2013-06-06 14:59:00,
2013-06-06 08:09:00,59.2,50.9,29.96,NW,313,0.0,0.0,74,0.00,,,-99.99,Weather View 32 v60,2013-06-06 15:09:00,
2013-06-06 08:19:00,59.2,50.9,29.96,NW,313,0.0,0.0,74,0.00,,,-99.99,Weather View 32 v60,2013-06-06 15:19:00,
2013-06-06 08:29:00,59.9,49.7,29.96,North,351,0.0,0.0,69,0.00,,,-99.99,Weather View 32 v60,2013-06-06 15:29:00,
2013-06-06 08:39:00,60.3,49.6,29.96,NNE,13,0.0,0.0,68,0.00,,,-99.99,Weather View 32 v60,2013-06-06 15:39:00,
2013-06-06 08:49:00,61.2,50.9,29.96,North,356,0.0,0.0,69,0.00,,,-99.99,Weather View 32 v60,2013-06-06 15:49:00,
2013-06-06 08:59:00,61.3,50.3,29.96,WNW,282,0.0,0.0,67,0.00,,,-99.99,Weather View 32 v60,2013-06-06 15:59:00,
2013-06-06 09:09:00,61.5,50.4,29.96,SW,219,0.0,0.0,67,0.00,,,-99.99,Weather View 32 v60,2013-06-06 16:09:00,
2013-06-06 09:19:00,61.5,50.4,29.96,SW,219,0.0,0.0,67,0.00,,,-99.99,Weather View 32 v60,2013-06-06 16:19:00,
2013-06-06 09:29:00,63.3,50.5,29.96,North,5,0.0,0.0,63,0.00,,,-99.99,Weather View 32 v60,2013-06-06 16:29:00,
2013-06-06 09:39:00,64.8,50.5,29.96,WSW,249,0.0,0.0,60,0.00,,,-99.99,Weather View 32 v60,2013-06-06 16:39:00,
2013-06-06 09:49:00,66.0,49.3,29.96,East,92,4.0,5.0,55,0.00,,,-99.99,Weather View 32 v60,2013-06-06 16:49:00,
2013-06-06 09:59:00,66.2,49.5,29.96,North,9,0.0,7.0,55,0.00,,,-99.99,Weather View 32 v60,2013-06-06 16:59:00,
2013-06-06 10:09:00,66.9,50.2,29.96,North,351,0.0,7.0,55,0.00,,,-99.99,Weather View 32 v60,2013-06-06 17:09:00,
2013-06-06 10:20:00,67.8,49.5,29.96,WSW,254,0.0,7.0,52,0.00,,,-99.99,Weather View 32 v60,2013-06-06 17:20:00,
2013-06-06 10:29:00,68.2,49.3,29.93,ENE,65,0.0,7.0,51,0.00,,,-99.99,Weather View 32 v60,2013-06-06 17:29:00,
2013-06-06 10:39:00,68.7,49.8,29.93,NNW,339,0.0,7.0,51,0.00,,,-99.99,Weather View 32 v60,2013-06-06 17:39:00,
2013-06-06 10:49:00,69.6,49.0,29.93,WSW,241,3.0,7.0,48,0.00,,,-99.99,Weather View 32 v60,2013-06-06 17:49:00,
2013-06-06 10:59:00,70.0,48.8,29.93,West,277,0.0,8.0,47,0.00,,,-99.99,Weather View 32 v60,2013-06-06 17:59:00,
2013-06-06 11:09:00,70.9,49.0,29.93,WSW,257,0.0,8.0,46,0.00,,,-99.99,Weather View 32 v60,2013-06-06 18:09:00,
2013-06-06 11:19:00,71.8,49.2,29.93,NNW,340,0.0,8.0,45,0.00,,,-99.99,Weather View 32 v60,2013-06-06 18:19:00,
2013-06-06 11:29:00,72.5,48.7,29.93,NNW,343,0.0,8.0,43,0.00,,,-99.99,Weather View 32 v60,2013-06-06 18:29:00,
2013-06-06 11:39:00,73.4,49.5,29.93,NNE,22,0.0,8.0,43,0.00,,,-99.99,Weather View 32 v60,2013-06-06 18:39:00,
2013-06-06 11:49:00,74.3,49.0,29.93,ENE,58,0.0,8.0,41,0.00,,,-99.99,Weather View 32 v60,2013-06-06 18:49:00,
2013-06-06 11:59:00,75.4,48.6,29.93,SSE,154,0.0,7.0,39,0.00,,,-99.99,Weather View 32 v60,2013-06-06 18:59:00,
2013-06-06 12:09:00,77.2,48.8,29.93,North,351,0.0,7.0,37,0.00,,,-99.99,Weather View 32 v60,2013-06-06 19:09:00,
2013-06-06 12:19:00,77.2,48.1,29.93,NNE,24,0.0,7.0,36,0.00,,,-99.99,Weather View 32 v60,2013-06-06 19:19:00,
2013-06-06 12:29:00,78.4,49.2,29.93,NW,306,0.0,7.0,36,0.00,,,-99.99,Weather View 32 v60,2013-06-06 19:29:00,
2013-06-06 12:39:00,79.5,48.6,29.90,NNW,342,5.0,7.0,34,0.00,,,-99.99,Weather View 32 v60,2013-06-06 19:39:00,
2013-06-06 12:49:00,80.1,47.5,29.90,North,8,0.0,7.0,32,0.00,,,-99.99,Weather View 32 v60,2013-06-06 19:49:00,
2013-06-06 12:59:00,80.4,47.8,29.90,North,3,5.0,9.0,32,0.00,,,-99.99,Weather View 32 v60,2013-06-06 19:59:00,
2013-06-06 13:09:00,80.8,48.1,29.90,NE,53,0.0,10.0,32,0.00,,,-99.99,Weather View 32 v60,2013-06-06 20:09:00,
2013-06-06 13:19:00,81.7,48.9,29.90,WNW,300,0.0,11.0,32,0.00,,,-99.99,Weather View 32 v60,2013-06-06 20:19:00,
2013-06-06 13:29:00,82.0,49.2,29.90,NNW,338,5.0,11.0,32,0.00,,,-99.99,Weather View 32 v60,2013-06-06 20:29:00,
2013-06-06 13:39:00,82.8,49.8,29.90,NNW,347,0.0,11.0,32,0.00,,,-99.99,Weather View 32 v60,2013-06-06 20:39:00,
2013-06-06 13:49:00,83.8,49.9,29.90,NNW,327,3.0,11.0,31,0.00,,,-99.99,Weather View 32 v60,2013-06-06 20:49:00,
2013-06-06 13:59:00,84.2,49.3,29.90,SW,222,0.0,11.0,30,0.00,,,-99.99,Weather View 32 v60,2013-06-06 20:59:00,
2013-06-06 14:09:00,84.2,49.3,29.87,WNW,287,3.0,11.0,30,0.00,,,-99.99,Weather View 32 v60,2013-06-06 21:09:00,
2013-06-06 14:19:00,84.2,49.3,29.87,WNW,283,4.0,10.0,30,0.00,,,-99.99,Weather View 32 v60,2013-06-06 21:19:00,
2013-06-06 14:29:00,85.3,49.3,29.87,ENE,58,3.0,10.0,29,0.00,,,-99.99,Weather View 32 v60,2013-06-06 21:29:00,
2013-06-06 14:39:00,85.5,49.5,29.87,NW,316,0.0,10.0,29,0.00,,,-99.99,Weather View 32 v60,2013-06-06 21:39:00,
2013-06-06 14:49:00,86.0,49.9,29.87,West,279,0.0,11.0,29,0.00,,,-99.99,Weather View 32 v60,2013-06-06 21:49:00,
2013-06-06 14:59:00,86.0,49.0,29.87,NNW,328,0.0,11.0,28,0.00,,,-99.99,Weather View 32 v60,2013-06-06 21:59:00,
2013-06-06 15:09:00,86.0,49.0,29.87,North,4,0.0,11.0,28,0.00,,,-99.99,Weather View 32 v60,2013-06-06 22:09:00,
2013-06-06 15:19:00,86.2,49.1,29.87,West,267,0.0,11.0,28,0.00,,,-99.99,Weather View 32 v60,2013-06-06 22:19:00,
2013-06-06 15:29:00,86.2,49.1,29.87,NNW,344,6.0,11.0,28,0.00,,,-99.99,Weather View 32 v60,2013-06-06 22:29:00,
2013-06-06 15:39:00,86.5,49.5,29.84,NW,322,0.0,11.0,28,0.00,,,-99.99,Weather View 32 v60,2013-06-06 22:39:00,
2013-06-06 15:49:00,86.9,49.8,29.84,SW,224,0.0,10.0,28,0.00,,,-99.99,Weather View 32 v60,2013-06-06 22:49:00,
2013-06-06 15:59:00,86.9,49.8,29.84,NW,305,4.0,10.0,28,0.00,,,-99.99,Weather View 32 v60,2013-06-06 22:59:00,
2013-06-06 16:09:00,87.3,50.1,29.84,South,185,0.0,8.0,28,0.00,,,-99.99,Weather View 32 v60,2013-06-06 23:09:00,
2013-06-06 16:19:00,0.0,0.0,29.84,West,259,0.0,9.0,0,0.00,,,-99.99,Weather View 32 v60,2013-06-06 23:19:00,
2013-06-06 16:29:00,0.0,0.0,29.84,SSE,164,0.0,9.0,0,0.00,,,-99.99,Weather View 32 v60,2013-06-06 23:29:00,
2013-06-06 16:39:00,86.5,49.5,29.84,NW,311,0.0,9.0,28,0.00,,,-99.99,Weather View 32 v60,2013-06-06 23:39:00,
2013-06-06 16:49:00,86.2,49.1,29.84,WNW,299,0.0,9.0,28,0.00,,,-99.99,Weather View 32 v60,2013-06-06 23:49:00,
2013-06-06 16:59:00,0.0,0.0,29.84,WNW,299,0.0,9.0,0,0.00,,,-99.99,Weather View 32 v60,2013-06-06 23:59:00,
2013-06-06 17:09:00,85.5,49.5,29.84,NW,322,3.0,9.0,29,0.00,,,-99.99,Weather View 32 v60,2013-06-07 00:09:00,
2013-06-06 17:19:00,85.1,49.2,29.84,NW,325,0.0,9.0,29,0.00,,,-99.99,Weather View 32 v60,2013-06-07 00:19:00,
2013-06-06 17:29:00,84.7,48.9,29.84,North,1,4.0,9.0,29,0.00,,,-99.99,Weather View 32 v60,2013-06-07 00:29:00,
2013-06-06 17:39:00,83.7,47.9,29.84,West,272,0.0,9.0,29,0.00,,,-99.99,Weather View 32 v60,2013-06-07 00:39:00,
2013-06-06 17:49:00,82.9,48.2,29.84,SW,225,3.0,8.0,30,0.00,,,-99.99,Weather View 32 v60,2013-06-07 00:49:00,
2013-06-06 17:59:00,81.7,47.1,29.84,SSW,207,7.0,8.0,30,0.00,,,-99.99,Weather View 32 v60,2013-06-07 00:59:00,
2013-06-06 18:09:00,80.8,47.2,29.84,WNW,302,7.0,10.0,31,0.00,,,-99.99,Weather View 32 v60,2013-06-07 01:09:00,
2013-06-06 18:19:00,80.4,46.9,29.84,West,268,0.0,10.0,31,0.00,,,-99.99,Weather View 32 v60,2013-06-07 01:19:00,
2013-06-06 18:29:00,79.5,47.8,29.84,WSW,256,0.0,10.0,33,0.00,,,-99.99,Weather View 32 v60,2013-06-07 01:29:00,
2013-06-06 18:39:00,78.8,47.2,29.84,SSW,202,0.0,10.0,33,0.00,,,-99.99,Weather View 32 v60,2013-06-07 01:39:00,
2013-06-06 18:49:00,78.1,47.3,29.84,West,277,3.0,10.0,34,0.00,,,-99.99,Weather View 32 v60,2013-06-07 01:49:00,
2013-06-06 18:59:00,77.5,47.6,29.84,NNW,330,0.0,10.0,35,0.00,,,-99.99,Weather View 32 v60,2013-06-07 01:59:00,
2013-06-06 19:09:00,77.5,47.6,29.84,NNW,331,0.0,8.0,35,0.00,,,-99.99,Weather View 32 v60,2013-06-07 02:09:00,
2013-06-06 19:19:00,76.8,47.0,29.84,North,351,0.0,7.0,35,0.00,,,-99.99,Weather View 32 v60,2013-06-07 02:19:00,
2013-06-06 19:25:00,76.8,47.0,29.84,North,351,0.0,7.0,35,0.00,,,-99.99,Weather View 32 v60,2013-06-07 02:25:00,
2013-06-06 19:39:00,75.6,46.7,29.84,West,278,0.0,7.0,36,0.00,,,-99.99,Weather View 32 v60,2013-06-07 02:39:00,
2013-06-06 19:49:00,73.9,47.3,29.84,NNW,343,0.0,7.0,39,0.00,,,-99.99,Weather View 32 v60,2013-06-07 02:49:00,
2013-06-06 19:59:00,72.7,47.6,29.84,North,351,0.0,7.0,41,0.00,,,-99.99,Weather View 32 v60,2013-06-07 02:59:00,
2013-06-06 20:09:00,71.2,47.5,29.84,NW,317,0.0,4.0,43,0.00,,,-99.99,Weather View 32 v60,2013-06-07 03:09:00,
2013-06-06 20:19:00,69.6,47.3,29.84,WNW,300,0.0,4.0,45,0.00,,,-99.99,Weather View 32 v60,2013-06-07 03:19:00,
2013-06-06 20:25:00,69.6,47.3,29.84,WNW,300,0.0,4.0,45,0.00,,,-99.99,Weather View 32 v60,2013-06-07 03:25:00,
2013-06-06 20:39:00,67.6,47.2,29.87,NW,325,0.0,7.0,48,0.00,,,-99.99,Weather View 32 v60,2013-06-07 03:39:00,
2013-06-06 20:49:00,66.7,47.5,29.87,NW,305,0.0,7.0,50,0.00,,,-99.99,Weather View 32 v60,2013-06-07 03:49:00,
2013-06-06 20:59:00,65.8,47.7,29.87,NNW,327,0.0,7.0,52,0.00,,,-99.99,Weather View 32 v60,2013-06-07 03:59:00,
2013-06-06 21:09:00,65.3,47.7,29.87,West,276,0.0,7.0,53,0.00,,,-99.99,Weather View 32 v60,2013-06-07 04:09:00,
2013-06-06 21:19:00,64.6,48.5,29.87,NNW,333,0.0,7.0,56,0.00,,,-99.99,Weather View 32 v60,2013-06-07 04:19:00,
2013-06-06 21:26:00,64.6,48.5,29.87,NNW,333,0.0,7.0,56,0.00,,,-99.99,Weather View 32 v60,2013-06-07 04:26:00,
2013-06-06 21:29:00,63.7,48.6,29.87,North,351,0.0,6.0,58,0.00,,,-99.99,Weather View 32 v60,2013-06-07 04:29:00,
2013-06-06 21:39:00,63.0,49.3,29.87,NW,310,0.0,6.0,61,0.00,,,-99.99,Weather View 32 v60,2013-06-07 04:39:00,
2013-06-06 21:49:00,62.1,48.9,29.87,NNW,327,0.0,6.0,62,0.00,,,-99.99,Weather View 32 v60,2013-06-07 04:49:00,
2013-06-06 21:59:00,61.3,49.4,29.87,SW,228,0.0,6.0,65,0.00,,,-99.99,Weather View 32 v60,2013-06-07 04:59:00,
2013-06-06 22:09:00,61.0,49.5,29.87,North,351,0.0,6.0,66,0.00,,,-99.99,Weather View 32 v60,2013-06-07 05:09:00,
2013-06-06 22:19:00,60.6,49.6,29.87,NNW,338,0.0,6.0,67,0.00,,,-99.99,Weather View 32 v60,2013-06-07 05:19:00,
2013-06-06 22:29:00,60.4,49.8,29.90,NNW,331,0.0,4.0,68,0.00,,,-99.99,Weather View 32 v60,2013-06-07 05:29:00,
2013-06-06 22:39:00,60.1,49.5,29.90,NNW,333,0.0,0.0,68,0.00,,,-99.99,Weather View 32 v60,2013-06-07 05:39:00,
2013-06-06 22:49:00,59.4,49.5,29.90,NW,313,0.0,0.0,70,0.00,,,-99.99,Weather View 32 v60,2013-06-07 05:49:00,
2013-06-06 22:59:00,59.2,49.8,29.87,NNW,338,0.0,0.0,71,0.00,,,-99.99,Weather View 32 v60,2013-06-07 05:59:00,
2013-06-06 23:09:00,59.0,50.3,29.90,NNE,31,0.0,0.0,73,0.00,,,-99.99,Weather View 32 v60,2013-06-07 06:09:00,
2013-06-06 23:19:00,58.8,50.2,29.90,NNW,341,0.0,0.0,73,0.00,,,-99.99,Weather View 32 v60,2013-06-07 06:19:00,
2013-06-06 23:27:00,58.8,50.2,29.90,NNW,341,0.0,0.0,73,0.00,,,-99.99,Weather View 32 v60,2013-06-07 06:27:00,
2013-06-06 23:39:00,58.6,50.4,29.90,NNW,332,0.0,0.0,74,0.00,,,-99.99,Weather View 32 v60,2013-06-07 06:39:00,
2013-06-06 23:49:00,58.3,49.6,29.90,NNW,334,0.0,0.0,73,0.00,,,-99.99,Weather View 32 v60,2013-06-07 06:49:00,
2013-06-06 23:59:00,58.1,50.2,29.90,North,5,0.0,0.0,75,0.00,,,-99.99,Weather View 32 v60,2013-06-07 06:59:00,